Time;durP1;ratioP1;P1;durP2;ratioP2;P2;SDS_P1;SDS_P2;PMS_P1;PMS_P2;Temp;Humidity;BMP_temperature;BMP_pressure;BME280_temperature;BME280_humidity;BME280_pressure;Samples;Min_cycle;Max_cycle;Signal;HPM_P1;HPM_P2
2021/07/15 00:00:14;;;;;;;6.27;2.80;;;;;;;14.73;97.38;100342.13;696663;28;1263;-51
2021/07/15 00:00:40;;;;;;;4.20;2.75;;;;;;;14.76;97.38;100339.41;696378;28;2019;-52
2021/07/15 00:01:05;;;;;;;4.18;2.85;;;;;;;14.78;97.18;100348.13;696150;28;914;-51
2021/07/15 00:01:25;;;;;;;4.15;2.90;;;;;;;14.79;97.08;100337.56;694930;28;4716;-54
2021/07/15 00:01:46;;;;;;;5.20;2.90;;;;;;;14.78;97.06;100338.47;694859;28;1817;-55
2021/07/15 00:02:10;;;;;;;4.57;3.00;;;;;;;14.76;96.83;100345.56;693844;28;1685;-52
2021/07/15 00:02:30;;;;;;;5.00;2.83;;;;;;;14.74;97.24;100347.34;695131;28;1602;-52
2021/07/15 00:02:51;;;;;;;4.72;2.88;;;;;;;14.76;97.03;100348.19;697172;28;1634;-55
2021/07/15 00:03:16;;;;;;;5.03;3.00;;;;;;;14.80;97.02;100351.56;697899;28;1795;-54
2021/07/15 00:03:37;;;;;;;4.72;2.97;;;;;;;14.83;96.72;100346.25;698332;28;1817;-53
2021/07/15 00:03:57;;;;;;;4.57;2.63;;;;;;;14.86;96.48;100346.16;698054;28;1664;-52
2021/07/15 00:04:18;;;;;;;4.53;2.50;;;;;;;14.88;96.26;100346.97;697573;28;1631;-51
2021/07/15 00:04:39;;;;;;;4.70;2.60;;;;;;;14.90;96.15;100341.69;696746;28;4564;-53
2021/07/15 00:05:03;;;;;;;5.70;2.60;;;;;;;14.91;96.17;100339.00;694943;28;1370;-52
2021/07/15 00:05:24;;;;;;;6.00;2.50;;;;;;;14.92;96.11;100345.13;695068;28;1276;-56
2021/07/15 00:05:46;;;;;;;3.88;2.42;;;;;;;14.93;95.97;100339.81;695527;28;4321;-56
2021/07/15 00:06:06;;;;;;;3.50;2.20;;;;;;;14.95;95.82;100340.66;694245;28;3088;-54
2021/07/15 00:06:27;;;;;;;4.43;2.30;;;;;;;14.96;95.57;100339.72;695586;28;1698;-52
2021/07/15 00:06:47;;;;;;;4.45;2.30;;;;;;;14.98;95.37;100340.56;695400;28;1716;-55
2021/07/15 00:07:08;;;;;;;3.13;2.22;;;;;;;15.01;95.31;100344.00;695428;28;1643;-53
2021/07/15 00:07:29;;;;;;;4.33;2.40;;;;;;;15.03;95.16;100344.81;694842;28;4513;-55
2021/07/15 00:07:49;;;;;;;3.47;2.17;;;;;;;15.03;95.12;100339.56;695487;28;1529;-54
2021/07/15 00:08:12;;;;;;;3.80;2.10;;;;;;;15.04;94.95;100338.66;698189;28;2011;-54
2021/07/15 00:08:32;;;;;;;4.13;2.15;;;;;;;15.05;94.87;100348.25;698415;28;1913;-54
2021/07/15 00:08:57;;;;;;;3.45;2.20;;;;;;;15.05;94.99;100349.16;698468;28;1467;-53
2021/07/15 00:09:18;;;;;;;4.32;2.40;;;;;;;15.06;94.95;100342.94;695248;28;1353;-52
2021/07/15 00:09:38;;;;;;;4.50;2.50;;;;;;;15.05;95.17;100346.50;695808;28;1654;-53
2021/07/15 00:09:58;;;;;;;3.42;2.13;;;;;;;15.06;94.94;100342.09;695704;28;1290;-52
2021/07/15 00:10:32;;;;;;;4.10;2.20;;;;;;;15.05;94.97;100346.50;696135;28;4295;-52
2021/07/15 00:11:00;;;;;;;4.43;2.30;;;;;;;14.98;95.32;100351.09;695095;28;4914;-55
2021/07/15 00:11:26;;;;;;;5.65;2.15;;;;;;;14.96;95.47;100346.75;694178;28;1775;-54
2021/07/15 00:11:48;;;;;;;4.00;2.20;;;;;;;14.98;95.23;100348.44;695725;28;1573;-52
2021/07/15 00:12:11;;;;;;;3.58;2.30;;;;;;;14.98;95.36;100351.09;695294;28;1569;-54
2021/07/15 00:12:31;;;;;;;4.10;2.42;;;;;;;14.97;95.68;100351.97;695587;28;1535;-54
2021/07/15 00:12:52;;;;;;;4.30;2.30;;;;;;;14.90;96.12;100342.53;696062;28;1703;-52
2021/07/15 00:13:14;;;;;;;3.03;2.20;;;;;;;14.89;96.16;100351.34;695354;28;1690;-55
2021/07/15 00:13:34;;;;;;;3.05;2.20;;;;;;;14.90;96.11;100347.81;695422;28;4379;-52
2021/07/15 00:13:55;;;;;;;4.70;2.40;;;;;;;14.89;96.20;100351.34;695198;28;1395;-52
2021/07/15 00:14:20;;;;;;;4.15;2.33;;;;;;;14.87;96.07;100358.41;694890;28;1530;-56
2021/07/15 00:14:42;;;;;;;3.70;2.13;;;;;;;14.86;95.91;100353.19;694814;28;4435;-56
2021/07/15 00:15:05;;;;;;;3.50;2.30;;;;;;;14.87;96.17;100352.28;695224;28;3840;-55
2021/07/15 00:15:31;;;;;;;4.80;2.42;;;;;;;14.83;96.53;100346.25;694115;28;1910;-53
2021/07/15 00:15:57;;;;;;;5.78;2.80;;;;;;;14.73;96.48;100356.16;694773;28;1511;-55
2021/07/15 00:16:19;;;;;;;4.90;2.33;;;;;;;14.75;96.74;100358.75;695215;28;1663;-55
2021/07/15 00:16:39;;;;;;;4.47;2.70;;;;;;;14.71;96.94;100362.38;695357;28;4490;-55
2021/07/15 00:17:00;;;;;;;3.97;2.60;;;;;;;14.69;97.14;100356.25;695472;28;1485;-55
2021/07/15 00:17:20;;;;;;;4.00;2.35;;;;;;;14.70;97.17;100355.38;696417;28;1288;-52
2021/07/15 00:17:41;;;;;;;5.47;2.50;;;;;;;14.70;97.13;100350.09;695718;28;1661;-53
2021/07/15 00:18:04;;;;;;;4.47;2.42;;;;;;;14.72;97.13;100357.06;694841;28;1404;-54
2021/07/15 00:18:33;;;;;;;4.30;2.50;;;;;;;14.69;97.26;100354.53;695741;28;1571;-54
2021/07/15 00:18:53;;;;;;;4.20;2.60;;;;;;;14.66;97.02;100353.72;695878;28;1676;-56
2021/07/15 00:19:15;;;;;;;4.28;2.65;;;;;;;14.65;97.10;100355.50;695082;28;4409;-52
2021/07/15 00:19:35;;;;;;;4.25;2.53;;;;;;;14.69;97.17;100353.63;696483;28;4534;-53
2021/07/15 00:19:56;;;;;;;3.13;2.30;;;;;;;14.71;97.16;100349.22;697209;28;1675;-51
2021/07/15 00:20:17;;;;;;;3.67;2.47;;;;;;;14.72;97.12;100354.44;695612;28;1563;-51
2021/07/15 00:20:44;;;;;;;5.05;2.30;;;;;;;14.76;96.78;100355.19;694672;28;1919;-55
2021/07/15 00:21:07;;;;;;;4.20;2.40;;;;;;;14.76;96.76;100355.19;694803;28;1898;-52
2021/07/15 00:21:28;;;;;;;4.60;2.50;;;;;;;14.73;96.69;100355.28;695117;28;1737;-54
2021/07/15 00:21:49;;;;;;;4.97;2.67;;;;;;;14.70;96.79;100356.22;694989;28;1535;-51
2021/07/15 00:22:09;;;;;;;4.25;2.60;;;;;;;14.70;96.90;100358.00;695925;28;1657;-55
2021/07/15 00:22:30;;;;;;;3.60;2.20;;;;;;;14.73;96.54;100355.28;694893;28;4392;-54
2021/07/15 00:22:50;;;;;;;6.55;2.40;;;;;;;14.69;96.68;100354.53;695043;28;1695;-51
2021/07/15 00:23:12;;;;;;;4.70;2.40;;;;;;;14.67;96.76;100355.47;695564;28;1724;-52
2021/07/15 00:23:32;;;;;;;5.45;2.53;;;;;;;14.64;97.03;100349.34;696310;28;4205;-52
2021/07/15 00:23:53;;;;;;;5.20;2.80;;;;;;;14.64;97.15;100353.78;694473;28;4744;-53
2021/07/15 00:24:17;;;;;;;4.77;2.70;;;;;;;14.61;96.98;100354.69;695293;28;1560;-53
2021/07/15 00:24:37;;;;;;;3.88;2.67;;;;;;;14.62;97.20;100358.16;694999;28;1594;-55
2021/07/15 00:24:59;;;;;;;5.90;2.73;;;;;;;14.57;97.29;100354.81;695261;28;1662;-51
2021/07/15 00:25:21;;;;;;;6.43;2.80;;;;;;;14.51;97.05;100354.94;694567;28;1467;-55
2021/07/15 00:25:43;;;;;;;5.28;2.67;;;;;;;14.48;96.84;100355.88;691063;28;4786;-51
2021/07/15 00:26:07;;;;;;;6.47;2.80;;;;;;;14.45;97.00;100355.97;695201;28;1808;-53
2021/07/15 00:26:27;;;;;;;6.22;2.92;;;;;;;14.47;97.26;100354.19;695068;28;1454;-52
2021/07/15 00:26:48;;;;;;;5.45;2.90;;;;;;;14.43;97.73;100353.41;695062;28;1553;-55
2021/07/15 00:27:10;;;;;;;5.28;3.03;;;;;;;14.43;97.39;100363.06;695626;28;1604;-52
2021/07/15 00:27:30;;;;;;;4.57;2.80;;;;;;;14.43;97.78;100357.81;695869;28;1618;-54
2021/07/15 00:27:50;;;;;;;3.97;2.80;;;;;;;14.45;97.88;100350.72;695210;28;4521;-51
2021/07/15 00:28:12;;;;;;;4.77;3.10;;;;;;;14.42;97.65;100356.06;694690;28;4659;-53
2021/07/15 00:28:32;;;;;;;4.30;2.80;;;;;;;14.41;97.98;100360.47;695175;28;4595;-55
2021/07/15 00:28:52;;;;;;;4.60;2.90;;;;;;;14.46;97.70;100362.97;695953;28;1673;-56
2021/07/15 00:29:13;;;;;;;5.27;2.80;;;;;;;14.48;97.81;100363.78;695728;28;1597;-52
2021/07/15 00:29:34;;;;;;;5.63;3.20;;;;;;;14.46;97.82;100352.44;695656;28;1761;-52
2021/07/15 00:29:54;;;;;;;6.18;3.13;;;;;;;14.42;97.70;100356.06;695131;28;1677;-54
2021/07/15 00:30:15;;;;;;;5.07;2.97;;;;;;;14.37;97.48;100364.09;695748;28;1960;-55
2021/07/15 00:30:36;;;;;;;6.22;3.22;;;;;;;14.37;97.79;100358.81;695457;28;1321;-55
2021/07/15 00:30:57;;;;;;;6.78;3.15;;;;;;;14.38;97.44;100362.31;695282;28;1547;-54
2021/07/15 00:31:18;;;;;;;4.20;2.70;;;;;;;14.42;97.62;100361.31;694976;28;1585;-54
2021/07/15 00:31:39;;;;;;;4.68;2.75;;;;;;;14.47;97.85;100360.31;695060;28;4424;-55
2021/07/15 00:31:59;;;;;;;4.47;2.90;;;;;;;14.51;97.85;100371.63;695968;28;1402;-52
2021/07/15 00:32:20;;;;;;;5.07;3.20;;;;;;;14.47;97.51;100359.44;696318;28;4029;-53
2021/07/15 00:32:40;;;;;;;6.13;3.30;;;;;;;14.45;97.77;100362.13;695485;28;4063;-54
2021/07/15 00:33:04;;;;;;;5.27;3.30;;;;;;;14.44;97.55;100360.38;693552;28;1726;-53
2021/07/15 00:33:25;;;;;;;5.20;3.10;;;;;;;14.47;97.67;100354.19;694799;28;2008;-52
2021/07/15 00:33:46;;;;;;;5.30;2.85;;;;;;;14.48;97.65;100356.78;694898;28;1498;-51
2021/07/15 00:34:06;;;;;;;5.10;2.92;;;;;;;14.52;97.95;100356.69;695310;28;1870;-53
2021/07/15 00:34:26;;;;;;;4.53;3.00;;;;;;;14.54;97.70;100362.75;694596;28;4318;-53
2021/07/15 00:34:47;;;;;;;4.40;3.00;;;;;;;14.54;97.59;100358.38;695708;28;1660;-55
2021/07/15 00:35:08;;;;;;;7.17;3.50;;;;;;;14.53;97.61;100358.44;694654;28;1321;-54
2021/07/15 00:35:30;;;;;;;5.20;3.70;;;;;;;14.54;97.60;100355.75;695724;28;1914;-53
2021/07/15 00:35:50;;;;;;;5.85;3.65;;;;;;;14.50;97.22;100353.25;695242;28;1705;-52
2021/07/15 00:36:11;;;;;;;7.07;3.83;;;;;;;14.46;97.11;100355.94;695427;28;1653;-52
2021/07/15 00:36:32;;;;;;;7.35;3.85;;;;;;;14.47;97.49;100359.44;695873;28;1807;-54
2021/07/15 00:36:52;;;;;;;6.03;3.72;;;;;;;14.48;97.63;100359.41;694240;28;4450;-54
2021/07/15 00:37:13;;;;;;;5.50;4.10;;;;;;;14.46;97.68;100360.34;694801;28;1595;-51
2021/07/15 00:37:33;;;;;;;6.30;4.13;;;;;;;14.43;97.48;100361.28;694657;28;4287;-51
2021/07/15 00:37:53;;;;;;;5.97;3.80;;;;;;;14.42;97.52;100358.69;695149;28;1507;-53
2021/07/15 00:38:14;;;;;;;6.63;3.43;;;;;;;14.41;97.60;100367.47;694583;28;1986;-55
2021/07/15 00:38:35;;;;;;;6.03;3.40;;;;;;;14.42;97.55;100366.59;695267;28;1423;-52
2021/07/15 00:38:55;;;;;;;6.20;3.65;;;;;;;14.41;97.91;100363.09;695270;28;1865;-55
2021/07/15 00:39:16;;;;;;;6.40;4.00;;;;;;;14.40;97.72;100363.13;694502;28;3168;-56
2021/07/15 00:39:36;;;;;;;6.40;3.67;;;;;;;14.37;97.82;100369.34;695697;28;1627;-52
2021/07/15 00:39:56;;;;;;;6.93;3.70;;;;;;;14.35;97.77;100367.66;695963;28;1568;-52
2021/07/15 00:40:17;;;;;;;5.72;3.70;;;;;;;14.33;97.63;100378.22;695100;28;1481;-51
2021/07/15 00:40:38;;;;;;;8.10;3.90;;;;;;;14.29;97.68;100373.94;695291;28;4494;-54
2021/07/15 00:40:59;;;;;;;7.60;4.00;;;;;;;14.29;97.59;100372.16;694697;28;1366;-52
2021/07/15 00:41:20;;;;;;;6.00;3.63;;;;;;;14.35;97.65;100370.28;695645;28;4386;-52
2021/07/15 00:41:41;;;;;;;5.57;3.50;;;;;;;14.38;97.70;100378.09;694846;28;2291;-52
2021/07/15 00:42:01;;;;;;;5.97;3.80;;;;;;;14.35;97.60;100375.53;693962;28;2280;-54
2021/07/15 00:42:22;;;;;;;7.20;3.97;;;;;;;14.36;97.78;100371.97;695518;28;2502;-55
2021/07/15 00:42:44;;;;;;;7.13;4.07;;;;;;;14.35;98.01;100378.16;695253;28;1512;-56
2021/07/15 00:43:05;;;;;;;7.07;4.00;;;;;;;14.37;97.87;100378.97;694717;28;1515;-56
2021/07/15 00:43:26;;;;;;;7.13;3.72;;;;;;;14.38;97.68;100373.69;694207;28;4401;-51
2021/07/15 00:43:47;;;;;;;4.83;3.50;;;;;;;14.43;97.54;100376.22;695264;28;2492;-55
2021/07/15 00:44:07;;;;;;;7.07;3.40;;;;;;;14.47;97.66;100377.84;695506;28;1290;-53
2021/07/15 00:44:28;;;;;;;9.03;3.57;;;;;;;14.48;97.80;100376.94;695623;28;1467;-55
2021/07/15 00:44:48;;;;;;;5.80;3.83;;;;;;;14.46;97.75;100370.88;695665;28;1696;-55
2021/07/15 00:45:10;;;;;;;5.93;3.97;;;;;;;14.45;97.77;100374.38;695737;28;1456;-55
2021/07/15 00:45:31;;;;;;;6.10;3.88;;;;;;;14.43;97.63;100378.84;696162;28;1755;-53
2021/07/15 00:45:52;;;;;;;7.30;4.18;;;;;;;14.40;97.45;100369.25;694524;28;4320;-52
2021/07/15 00:46:13;;;;;;;6.55;3.80;;;;;;;14.43;97.79;100373.56;695541;28;1482;-53
2021/07/15 00:46:33;;;;;;;6.90;3.90;;;;;;;14.42;97.94;100370.06;694879;28;4484;-51
2021/07/15 00:46:53;;;;;;;5.93;4.22;;;;;;;14.39;98.02;100366.66;695254;28;1469;-51
2021/07/15 00:47:14;;;;;;;5.63;4.30;;;;;;;14.39;97.91;100369.31;695620;28;1600;-54
2021/07/15 00:47:34;;;;;;;5.03;3.40;;;;;;;14.42;97.81;100371.84;694972;28;1655;-52
2021/07/15 00:47:55;;;;;;;5.50;3.60;;;;;;;14.43;97.70;100368.31;694645;28;1651;-53
2021/07/15 00:48:15;;;;;;;5.68;3.70;;;;;;;14.42;97.72;100374.47;696190;28;1450;-52
2021/07/15 00:48:36;;;;;;;7.30;3.60;;;;;;;14.43;97.82;100363.91;695438;28;1521;-53
2021/07/15 00:48:56;;;;;;;4.90;3.40;;;;;;;14.45;97.83;100366.50;695392;28;1584;-55
2021/07/15 00:49:16;;;;;;;5.60;3.87;;;;;;;14.44;97.60;100370.03;694940;28;1855;-55
2021/07/15 00:49:37;;;;;;;4.95;3.60;;;;;;;14.44;97.75;100368.28;696381;28;4289;-51
2021/07/15 00:49:57;;;;;;;5.20;3.53;;;;;;;14.47;97.62;100373.44;695303;28;1382;-53
2021/07/15 00:50:21;;;;;;;6.18;3.65;;;;;;;14.46;97.68;100371.72;694676;28;3892;-51
2021/07/15 00:50:41;;;;;;;6.35;3.95;;;;;;;14.43;97.53;100376.22;694366;28;1644;-55
2021/07/15 00:51:02;;;;;;;5.93;3.95;;;;;;;14.37;97.45;100363.19;694201;28;2203;-56
2021/07/15 00:51:24;;;;;;;6.32;3.83;;;;;;;14.34;97.42;100366.75;695194;28;1472;-55
2021/07/15 00:51:45;;;;;;;7.57;4.07;;;;;;;14.31;97.39;100364.22;695530;28;1591;-52
2021/07/15 00:52:11;;;;;;;6.23;4.00;;;;;;;14.32;97.29;100376.47;694678;28;1486;-51
2021/07/15 00:52:33;;;;;;;4.85;3.75;;;;;;;14.36;97.57;100374.59;694543;28;4452;-51
2021/07/15 00:52:53;;;;;;;5.60;3.92;;;;;;;14.40;97.38;100371.88;695382;28;1709;-51
2021/07/15 00:53:14;;;;;;;5.78;3.78;;;;;;;14.42;97.45;100367.44;695007;28;2033;-52
2021/07/15 00:53:36;;;;;;;6.32;4.00;;;;;;;14.42;97.33;100364.81;695995;28;1331;-55
2021/07/15 00:53:56;;;;;;;7.40;4.22;;;;;;;14.39;97.29;100366.66;695293;28;1426;-51
2021/07/15 00:54:17;;;;;;;6.32;4.30;;;;;;;14.37;97.33;100371.09;696135;28;1439;-52
2021/07/15 00:54:40;;;;;;;4.90;4.07;;;;;;;14.39;97.54;100366.66;696133;28;4140;-53
2021/07/15 00:55:02;;;;;;;5.03;4.07;;;;;;;14.39;97.66;100364.88;694488;28;1461;-53
2021/07/15 00:55:25;;;;;;;6.18;4.70;;;;;;;14.39;97.76;100366.66;693541;28;4306;-51
2021/07/15 00:55:46;;;;;;;6.90;4.60;;;;;;;14.36;97.64;100362.34;694366;28;1412;-55
2021/07/15 00:56:07;;;;;;;6.53;4.35;;;;;;;14.37;97.75;100366.72;694801;28;1442;-51
2021/07/15 00:56:28;;;;;;;5.53;4.63;;;;;;;14.36;97.74;100361.47;696192;28;1586;-52
2021/07/15 00:56:49;;;;;;;6.40;4.60;;;;;;;14.34;97.69;100363.28;695057;28;1478;-56
2021/07/15 00:57:10;;;;;;;6.60;4.80;;;;;;;14.36;97.92;100364.97;695665;28;1851;-52
2021/07/15 00:57:30;;;;;;;5.90;4.50;;;;;;;14.37;97.83;100358.81;695586;28;1409;-54
2021/07/15 00:57:51;;;;;;;5.72;4.25;;;;;;;14.42;97.79;100361.31;695936;28;975;-52
2021/07/15 00:58:14;;;;;;;6.67;4.33;;;;;;;14.43;97.79;100361.28;694857;28;1055;-51
2021/07/15 00:58:35;;;;;;;6.70;4.00;;;;;;;14.45;97.65;100363.88;694506;28;4392;-55
2021/07/15 00:58:55;;;;;;;5.63;4.00;;;;;;;14.46;97.51;100363.81;695138;28;3882;-56
2021/07/15 00:59:20;;;;;;;5.75;4.00;;;;;;;14.46;97.82;100362.97;694674;28;4083;-51
2021/07/15 00:59:41;;;;;;;5.80;4.30;;;;;;;14.43;97.72;100360.44;695057;28;1173;-52
2021/07/15 01:00:03;;;;;;;5.90;4.40;;;;;;;14.43;97.75;100363.06;694804;28;1569;-51
2021/07/15 01:00:25;;;;;;;5.82;4.10;;;;;;;14.42;97.70;100361.31;695238;28;1419;-53
2021/07/15 01:00:48;;;;;;;6.78;4.15;;;;;;;14.41;97.67;100362.22;695261;28;1377;-53
2021/07/15 01:01:19;;;;;;;8.52;4.30;;;;;;;14.40;97.50;100360.47;694514;28;1334;-53
2021/07/15 01:01:39;;;;;;;5.15;3.95;;;;;;;14.40;97.72;100357.84;694761;28;4328;-51
2021/07/15 01:02:00;;;;;;;4.97;4.07;;;;;;;14.40;97.65;100357.84;694961;28;1352;-54
2021/07/15 01:02:21;;;;;;;5.07;4.07;;;;;;;14.42;97.54;100356.06;693580;28;1134;-55
2021/07/15 01:02:41;;;;;;;6.00;3.92;;;;;;;14.46;97.43;100368.22;692824;28;1451;-54
2021/07/15 01:03:03;;;;;;;5.77;4.03;;;;;;;14.46;97.20;100358.56;694017;28;1275;-51
2021/07/15 01:03:25;;;;;;;5.35;4.00;;;;;;;14.45;97.18;100359.50;695173;28;4243;-52
2021/07/15 01:03:52;;;;;;;6.72;3.90;;;;;;;14.43;97.26;100360.44;694626;28;4571;-52
2021/07/15 01:04:16;;;;;;;6.10;3.70;;;;;;;14.43;97.22;100352.53;693996;28;1352;-53
2021/07/15 01:04:37;;;;;;;7.22;3.42;;;;;;;14.48;97.04;100355.88;694780;28;5470;-55
2021/07/15 01:05:14;;;;;;;6.20;3.50;;;;;;;14.52;96.70;100352.28;694666;28;1197;-51
2021/07/15 01:05:48;;;;;;;6.22;3.58;;;;;;;14.48;96.59;100355.88;695071;28;1774;-55
2021/07/15 01:06:09;;;;;;;4.50;3.50;;;;;;;14.45;96.60;100351.59;695340;28;1445;-53
2021/07/15 01:06:32;;;;;;;5.10;3.55;;;;;;;14.45;96.67;100354.22;695813;28;1278;-51
2021/07/15 01:06:56;;;;;;;5.13;3.67;;;;;;;14.46;96.62;100344.56;695819;28;1518;-51
2021/07/15 01:07:16;;;;;;;4.95;3.70;;;;;;;14.44;97.03;100359.50;695187;28;1392;-51
2021/07/15 01:07:43;;;;;;;5.43;4.03;;;;;;;14.39;96.98;100350.91;695083;28;4558;-52
2021/07/15 01:08:10;;;;;;;6.97;3.90;;;;;;;14.34;97.03;100345.72;694485;28;4327;-51
2021/07/15 01:08:31;;;;;;;6.53;3.90;;;;;;;14.32;97.15;100347.56;693984;28;1679;-53
2021/07/15 01:08:51;;;;;;;6.10;3.93;;;;;;;14.33;97.29;100351.91;694567;28;1794;-51
2021/07/15 01:09:11;;;;;;;5.38;3.90;;;;;;;14.31;97.50;100344.03;695677;28;1858;-51
2021/07/15 01:09:38;;;;;;;7.17;4.07;;;;;;;14.30;97.70;100352.84;695365;28;1784;-51
2021/07/15 01:10:02;;;;;;;6.03;4.30;;;;;;;14.33;97.76;100353.66;695193;28;1814;-51
2021/07/15 01:10:29;;;;;;;5.40;4.03;;;;;;;14.35;97.56;100352.72;694696;28;4566;-50
2021/07/15 01:11:06;;;;;;;5.03;3.75;;;;;;;14.33;97.49;100354.53;694517;28;1307;-51
2021/07/15 01:11:27;;;;;;;6.65;4.25;;;;;;;14.31;97.69;100356.34;695400;28;1256;-51
2021/07/15 01:12:14;;;;;;;6.10;4.00;;;;;;;14.33;97.50;100354.53;695047;28;1402;-53
2021/07/15 01:13:22;;;;;;;6.38;4.10;;;;;;;14.27;97.60;100358.19;695162;28;4456;-52
2021/07/15 01:13:59;;;;;;;4.68;3.50;;;;;;;14.36;97.30;100356.19;695208;28;5052;-51
2021/07/15 01:14:29;;;;;;;7.50;4.50;;;;;;;14.34;97.54;100361.50;695889;28;1525;-52
2021/07/15 01:15:00;;;;;;;6.97;4.10;;;;;;;14.25;97.38;100354.72;695468;28;1568;-51
2021/07/15 01:15:27;;;;;;;6.13;4.05;;;;;;;14.22;97.31;100354.81;695641;28;1532;-52
2021/07/15 01:16:11;;;;;;;6.40;3.78;;;;;;;14.19;97.50;100365.41;694440;28;1654;-55
2021/07/15 01:16:38;;;;;;;5.57;3.63;;;;;;;14.18;97.65;100357.53;694973;28;4344;-50
2021/07/15 01:17:11;;;;;;;6.35;4.00;;;;;;;14.19;97.82;100356.63;694574;28;4595;-51
2021/07/15 01:18:04;;;;;;;6.57;3.75;;;;;;;14.16;97.99;100359.34;694438;28;1724;-52
2021/07/15 01:18:38;;;;;;;6.38;4.10;;;;;;;14.20;98.07;100356.59;694702;28;1807;-52
2021/07/15 01:19:15;;;;;;;5.68;3.80;;;;;;;14.23;97.99;100353.91;697430;28;2038;-51
2021/07/15 01:19:42;;;;;;;6.13;4.18;;;;;;;14.20;97.76;100358.38;697207;28;4448;-51
2021/07/15 01:20:27;;;;;;;5.90;4.00;;;;;;;14.22;98.06;100361.81;697853;28;1230;-52
2021/07/15 01:21:31;;;;;;;5.68;4.28;;;;;;;14.21;98.04;100358.31;696074;28;1801;-53
2021/07/15 01:22:11;;;;;;;6.53;4.30;;;;;;;14.19;98.22;100359.25;694939;28;1549;-53
2021/07/15 01:23:06;;;;;;;6.18;3.72;;;;;;;14.22;98.09;100360.06;694886;28;4310;-50
2021/07/15 01:24:07;;;;;;;6.53;3.80;;;;;;;14.20;98.21;100348.69;684001;28;1615;-50
2021/07/15 01:25:04;;;;;;;6.63;3.60;;;;;;;14.25;98.29;100351.25;689449;28;1786;-51
2021/07/15 01:25:58;;;;;;;7.55;3.90;;;;;;;14.24;98.37;100347.72;690433;28;4565;-51
2021/07/15 01:26:59;;;;;;;6.50;3.88;;;;;;;14.23;98.27;100356.53;689152;28;1700;-52
2021/07/15 01:27:23;;;;;;;7.05;3.78;;;;;;;14.23;98.09;100350.41;694946;28;1507;-51
2021/07/15 01:27:50;;;;;;;6.35;3.75;;;;;;;14.20;98.14;100355.75;695078;28;1583;-53
2021/07/15 01:28:27;;;;;;;6.60;3.78;;;;;;;14.17;98.35;100358.44;695223;28;1545;-51
2021/07/15 01:29:18;;;;;;;6.10;3.55;;;;;;;14.15;98.14;100353.22;691755;28;5249;-51
2021/07/15 01:30:09;;;;;;;6.40;3.78;;;;;;;14.16;98.44;100357.56;694853;28;1580;-52
2021/07/15 01:30:46;;;;;;;6.93;3.60;;;;;;;14.19;98.37;100347.00;694399;28;1942;-54
2021/07/15 01:31:13;;;;;;;4.82;3.10;;;;;;;14.24;98.19;100352.97;695699;28;1500;-51
2021/07/15 01:31:40;;;;;;;6.60;3.40;;;;;;;14.25;98.12;100354.72;694797;28;4299;-52
2021/07/15 01:32:08;;;;;;;5.30;3.30;;;;;;;14.26;98.33;100348.56;695330;28;1668;-54
2021/07/15 01:32:48;;;;;;;5.43;3.40;;;;;;;14.25;98.13;100354.72;695431;28;1619;-51
2021/07/15 01:33:36;;;;;;;6.10;3.22;;;;;;;14.25;98.18;100359.97;694781;28;4418;-54
2021/07/15 01:34:06;;;;;;;5.95;3.05;;;;;;;14.27;98.07;100358.19;694780;28;1691;-53
2021/07/15 01:34:33;;;;;;;5.75;3.22;;;;;;;14.27;98.16;100350.31;693695;28;4378;-51
2021/07/15 01:35:00;;;;;;;6.40;3.58;;;;;;;14.26;98.15;100352.94;695392;28;1522;-51
2021/07/15 01:35:27;;;;;;;5.53;3.45;;;;;;;14.24;98.18;100362.66;695023;28;1645;-52
2021/07/15 01:35:58;;;;;;;5.28;3.30;;;;;;;14.23;98.16;100351.28;695265;28;1472;-52
2021/07/15 01:36:25;;;;;;;4.45;3.13;;;;;;;14.24;98.07;100350.34;695668;28;1416;-51
2021/07/15 01:36:52;;;;;;;4.90;3.22;;;;;;;14.28;98.12;100351.16;696246;28;1607;-52
2021/07/15 01:37:16;;;;;;;6.40;3.28;;;;;;;14.24;98.29;100352.97;695413;28;1463;-51
2021/07/15 01:37:43;;;;;;;5.30;3.42;;;;;;;14.21;98.27;100357.47;693533;28;4646;-52
2021/07/15 01:38:04;;;;;;;5.45;3.30;;;;;;;14.18;98.14;100358.41;694878;28;1641;-51
2021/07/15 01:38:32;;;;;;;4.38;3.30;;;;;;;14.14;98.38;100354.97;694818;28;1506;-54
2021/07/15 01:39:01;;;;;;;5.55;3.30;;;;;;;14.17;98.32;100361.09;694987;28;1957;-51
2021/07/15 01:39:26;;;;;;;6.35;3.50;;;;;;;14.16;98.41;100360.19;694418;28;1485;-52
2021/07/15 01:39:50;;;;;;;5.40;3.10;;;;;;;14.16;98.14;100365.47;694157;28;1762;-51
2021/07/15 01:40:13;;;;;;;4.70;3.20;;;;;;;14.19;98.05;100361.88;695595;28;1166;-51
2021/07/15 01:40:43;;;;;;;5.07;3.20;;;;;;;14.22;98.40;100360.06;696320;28;4448;-51
2021/07/15 01:41:09;;;;;;;5.18;3.20;;;;;;;14.24;98.07;100360.88;694329;28;1587;-52
2021/07/15 01:41:33;;;;;;;5.25;3.30;;;;;;;14.27;98.08;100363.44;694767;28;1537;-54
2021/07/15 01:42:00;;;;;;;4.50;3.13;;;;;;;14.30;97.86;100360.75;694756;28;4038;-55
2021/07/15 01:42:21;;;;;;;5.30;3.08;;;;;;;14.29;98.20;100361.63;695156;28;4265;-52
2021/07/15 01:42:42;;;;;;;5.80;3.10;;;;;;;14.25;97.80;100364.38;695083;28;1746;-53
2021/07/15 01:43:08;;;;;;;4.60;3.05;;;;;;;14.20;97.61;100364.47;694575;28;1227;-52
2021/07/15 01:43:44;;;;;;;4.53;3.05;;;;;;;14.18;97.78;100358.41;694393;28;4334;-52
2021/07/15 01:44:09;;;;;;;6.10;3.22;;;;;;;14.18;97.84;100366.28;694513;28;1584;-51
2021/07/15 01:44:30;;;;;;;6.35;3.40;;;;;;;14.20;98.00;100364.47;695864;28;1428;-51
2021/07/15 01:44:54;;;;;;;5.45;3.30;;;;;;;14.22;98.16;100365.31;695344;28;1468;-51
2021/07/15 01:45:15;;;;;;;5.57;3.50;;;;;;;14.22;98.31;100365.31;695426;28;1432;-53
2021/07/15 01:45:37;;;;;;;5.63;3.60;;;;;;;14.22;98.47;100361.81;695416;28;1362;-53
2021/07/15 01:45:57;;;;;;;6.68;3.75;;;;;;;14.22;98.63;100369.69;694014;28;1427;-55
2021/07/15 01:46:18;;;;;;;6.32;3.80;;;;;;;14.20;98.33;100368.88;694751;28;3313;-54
2021/07/15 01:46:40;;;;;;;5.45;3.50;;;;;;;14.19;98.42;100369.78;693407;28;4517;-53
2021/07/15 01:47:00;;;;;;;5.57;3.40;;;;;;;14.18;98.47;100371.56;693933;28;1529;-51
2021/07/15 01:47:21;;;;;;;5.53;3.70;;;;;;;14.17;98.47;100372.44;694847;28;1501;-53
2021/07/15 01:47:42;;;;;;;6.60;3.55;;;;;;;14.16;98.50;100369.88;695122;28;1775;-52
2021/07/15 01:48:03;;;;;;;5.70;3.40;;;;;;;14.17;98.53;100369.81;694385;28;1780;-53
2021/07/15 01:48:23;;;;;;;5.32;3.17;;;;;;;14.22;98.27;100359.19;695222;28;1599;-53
2021/07/15 01:48:45;;;;;;;5.93;3.03;;;;;;;14.24;98.17;100363.50;695832;28;1590;-52
2021/07/15 01:49:06;;;;;;;4.90;3.20;;;;;;;14.24;97.97;100370.53;695069;28;1307;-51
2021/07/15 01:49:28;;;;;;;6.50;3.30;;;;;;;14.20;98.16;100367.09;694288;28;4326;-54
2021/07/15 01:49:50;;;;;;;5.65;3.30;;;;;;;14.18;97.95;100363.66;695205;28;1633;-53
2021/07/15 01:50:11;;;;;;;5.28;3.20;;;;;;;14.17;98.00;100375.06;695705;28;1078;-53
2021/07/15 01:50:33;;;;;;;5.20;3.13;;;;;;;14.20;98.19;100361.00;697791;28;1992;-53
2021/07/15 01:50:54;;;;;;;6.75;3.28;;;;;;;14.23;97.86;100366.16;697175;28;4293;-52
2021/07/15 01:51:15;;;;;;;5.45;3.15;;;;;;;14.26;97.64;100359.09;696945;28;2068;-53
2021/07/15 01:51:36;;;;;;;4.30;2.83;;;;;;;14.30;97.85;100359.84;697008;28;1688;-53
2021/07/15 01:51:59;;;;;;;4.28;2.80;;;;;;;14.35;97.75;100362.38;697850;28;1594;-51
2021/07/15 01:52:21;;;;;;;4.65;2.95;;;;;;;14.34;97.77;100363.28;696292;28;1771;-51
2021/07/15 01:52:42;;;;;;;5.75;3.05;;;;;;;14.29;97.91;100353.75;695080;28;4777;-52
2021/07/15 01:53:02;;;;;;;5.22;3.20;;;;;;;14.26;97.54;100356.47;694907;28;1489;-51
2021/07/15 01:53:24;;;;;;;5.25;3.20;;;;;;;14.26;97.58;100358.19;695263;28;1378;-52
2021/07/15 01:53:44;;;;;;;4.85;3.30;;;;;;;14.28;97.81;100351.16;696671;28;1418;-53
2021/07/15 01:54:06;;;;;;;5.70;3.05;;;;;;;14.30;97.79;100350.22;694737;28;1416;-53
2021/07/15 01:54:28;;;;;;;4.43;3.00;;;;;;;14.33;97.63;100354.53;695923;28;1544;-52
2021/07/15 01:54:50;;;;;;;4.18;2.85;;;;;;;14.36;97.44;100351.81;695860;28;1620;-52
2021/07/15 01:55:12;;;;;;;5.47;3.40;;;;;;;14.38;97.70;100352.63;695546;28;3790;-51
2021/07/15 01:55:33;;;;;;;7.45;4.07;;;;;;;14.36;97.49;100357.09;694003;28;5012;-52
2021/07/15 01:55:55;;;;;;;6.55;3.40;;;;;;;14.34;97.49;100352.75;694865;28;1623;-55
2021/07/15 01:56:17;;;;;;;5.32;3.67;;;;;;;14.31;97.40;100357.19;695137;28;1810;-51